createdAt,value
2022-08-15T00:01:05.757Z,41.50
2022-08-15T00:04:00.024Z,41.70
2022-08-15T00:06:39.736Z,41.62
2022-08-15T00:09:10.473Z,41.71
2022-08-15T00:11:40.810Z,41.85
2022-08-15T00:14:18.913Z,41.89
2022-08-15T00:16:48.487Z,41.95
2022-08-15T00:19:17.650Z,42.07
2022-08-15T00:21:48.997Z,42.19
2022-08-15T00:24:28.557Z,42.14
2022-08-15T00:26:59.434Z,42.11
2022-08-15T00:29:30.556Z,42.28
2022-08-15T00:32:48.197Z,42.05
2022-08-15T00:34:55.285Z,42.13
2022-08-15T00:37:23.438Z,42.16
2022-08-15T00:39:55.752Z,42.55
2022-08-15T00:42:29.381Z,42.48
2022-08-15T00:45:13.649Z,42.51
2022-08-15T00:48:09.495Z,42.83
2022-08-15T00:50:38.933Z,42.57
2022-08-15T00:53:11.536Z,42.56
2022-08-15T00:55:42.396Z,42.67
2022-08-15T00:58:34.347Z,42.43
2022-08-15T01:01:00.950Z,42.30
2022-08-15T01:03:30.892Z,42.21
2022-08-15T01:06:03.369Z,42.20
2022-08-15T01:08:38.917Z,42.01
2022-08-15T01:11:10.573Z,42.19
2022-08-15T01:14:04.082Z,41.95
2022-08-15T01:16:34.519Z,41.94
2022-08-15T01:19:05.393Z,42.13
2022-08-15T01:21:42.817Z,42.09
2022-08-15T01:24:17.161Z,42.09
2022-08-15T01:26:47.173Z,42.05
2022-08-15T01:29:17.807Z,42.06
2022-08-15T01:31:48.634Z,42.23
2022-08-15T01:34:18.202Z,42.56
2022-08-15T01:36:47.393Z,42.28
2022-08-15T01:39:17.903Z,42.49
2022-08-15T01:41:54.493Z,42.38
2022-08-15T01:44:33.038Z,42.39
2022-08-15T01:47:12.669Z,42.63
2022-08-15T01:49:45.345Z,42.71
2022-08-15T01:52:57.953Z,42.57
2022-08-15T01:55:16.611Z,42.82
2022-08-15T01:57:50.166Z,43.03
2022-08-15T02:00:18.980Z,43.00
2022-08-15T02:02:47.498Z,43.05
2022-08-15T02:05:15.735Z,43.16
2022-08-15T02:07:49.068Z,42.90
2022-08-15T02:10:31.894Z,42.99
2022-08-15T02:13:15.129Z,42.83
2022-08-15T02:15:44.258Z,42.90
2022-08-15T02:18:19.562Z,42.89
2022-08-15T02:20:51.152Z,42.62
2022-08-15T02:23:20.753Z,42.70
2022-08-15T02:25:51.665Z,42.80
2022-08-15T02:28:35.001Z,42.68
2022-08-15T02:31:11.596Z,42.72
2022-08-15T02:33:43.229Z,42.60
2022-08-15T02:36:31.404Z,42.65
2022-08-15T02:39:00.825Z,42.47
2022-08-15T02:41:37.706Z,42.49
2022-08-15T02:44:19.083Z,42.50
2022-08-15T02:47:03.363Z,42.36
2022-08-15T02:49:35.724Z,42.28
2022-08-15T02:52:20.455Z,42.33
2022-08-15T02:54:58.617Z,42.47
2022-08-15T02:57:28.443Z,42.34
2022-08-15T02:59:57.968Z,42.56
2022-08-15T03:02:30.541Z,42.57
2022-08-15T03:05:00.305Z,42.50
2022-08-15T03:07:28.855Z,42.65
2022-08-15T03:09:57.450Z,42.70
2022-08-15T03:12:32.171Z,42.71
2022-08-15T03:15:03.215Z,42.74
2022-08-15T03:17:35.108Z,42.78
2022-08-15T03:20:06.579Z,42.76
2022-08-15T03:22:46.760Z,42.94
2022-08-15T03:25:29.967Z,42.81
2022-08-15T03:27:58.393Z,42.81
2022-08-15T03:30:27.789Z,42.84
2022-08-15T03:32:56.623Z,42.96
2022-08-15T03:35:27.599Z,42.90
2022-08-15T03:37:59.844Z,42.98
2022-08-15T03:40:30.213Z,43.04
2022-08-15T03:43:02.085Z,43.04
2022-08-15T03:45:35.623Z,43.29
2022-08-15T03:48:04.166Z,43.37
2022-08-15T03:50:35.976Z,43.51
2022-08-15T03:53:11.453Z,43.80
2022-08-15T03:55:44.150Z,44.15
2022-08-15T03:58:35.723Z,44.14
2022-08-15T04:01:06.519Z,44.18
2022-08-15T04:03:34.913Z,44.15
2022-08-15T04:06:11.824Z,43.97
2022-08-15T04:09:02.814Z,44.23
2022-08-15T04:11:35.877Z,44.25
2022-08-15T04:14:31.108Z,44.46
2022-08-15T04:17:01.894Z,44.63
2022-08-15T04:19:46.509Z,44.45
2022-08-15T04:22:28.969Z,44.67
2022-08-15T04:25:12.571Z,44.58
2022-08-15T04:27:50.147Z,44.61
2022-08-15T04:30:21.023Z,44.70
2022-08-15T04:33:00.074Z,45.05
2022-08-15T04:35:39.233Z,45.15
2022-08-15T04:38:07.635Z,45.65
2022-08-15T04:41:19.030Z,45.72
2022-08-15T04:43:24.620Z,45.54
2022-08-15T04:45:53.718Z,45.50
2022-08-15T04:48:23.197Z,45.65
2022-08-15T04:50:53.048Z,45.68
2022-08-15T04:53:30.488Z,45.92
2022-08-15T04:56:00.572Z,46.40
2022-08-15T04:58:41.589Z,47.01
2022-08-15T05:01:12.756Z,47.17
2022-08-15T05:03:42.216Z,47.43
2022-08-15T05:06:29.471Z,47.65
2022-08-15T05:08:59.297Z,47.97
2022-08-15T05:12:01.365Z,48.05
2022-08-15T05:14:35.609Z,47.88
2022-08-15T05:17:03.280Z,47.98
2022-08-15T05:19:32.710Z,47.71
2022-08-15T05:22:05.516Z,47.37
2022-08-15T05:24:33.853Z,47.24
2022-08-15T05:27:03.238Z,47.21
2022-08-15T05:29:31.743Z,47.00
2022-08-15T05:31:59.865Z,47.17
2022-08-15T05:34:43.013Z,47.27
2022-08-15T05:37:14.940Z,47.32
2022-08-15T05:39:43.796Z,48.02
2022-08-15T05:42:27.898Z,48.33
2022-08-15T05:45:02.812Z,48.27
2022-08-15T05:47:33.753Z,48.59
2022-08-15T05:50:07.380Z,48.77
2022-08-15T05:52:48.059Z,49.05
2022-08-15T05:55:20.723Z,49.44
2022-08-15T05:57:58.178Z,49.86
2022-08-15T06:00:27.317Z,50.87
2022-08-15T06:02:58.763Z,50.64
2022-08-15T06:05:33.210Z,50.78
2022-08-15T06:08:48.908Z,50.73
2022-08-15T06:11:02.273Z,50.71
2022-08-15T06:13:33.363Z,50.70
2022-08-15T06:16:40.818Z,50.77
2022-08-15T06:18:54.023Z,51.50
2022-08-15T06:21:27.511Z,51.47
2022-08-15T06:24:01.635Z,51.26
2022-08-15T06:26:40.985Z,51.12
2022-08-15T06:29:32.835Z,51.05
2022-08-15T06:32:04.062Z,51.00
2022-08-15T06:34:46.288Z,51.02
2022-08-15T06:37:26.102Z,50.74
2022-08-15T06:40:08.800Z,50.72
2022-08-15T06:42:38.669Z,50.74
2022-08-15T06:45:11.438Z,50.72
2022-08-15T06:47:42.452Z,50.60
2022-08-15T06:50:17.005Z,50.72
2022-08-15T06:52:54.961Z,50.53
2022-08-15T06:55:29.016Z,50.63
2022-08-15T06:58:53.372Z,50.47
2022-08-15T07:00:57.302Z,50.23
2022-08-15T07:03:44.801Z,50.46
2022-08-15T07:06:13.192Z,50.16
2022-08-15T07:08:49.317Z,50.30
2022-08-15T07:11:23.251Z,50.00
2022-08-15T07:14:21.407Z,50.14
2022-08-15T07:16:53.701Z,50.06
2022-08-15T07:19:22.341Z,49.78
2022-08-15T07:21:53.258Z,49.65
2022-08-15T07:24:34.444Z,49.63
2022-08-15T07:27:13.535Z,49.59
2022-08-15T07:29:43.609Z,49.76
2022-08-15T07:32:32.595Z,49.47
2022-08-15T07:35:19.373Z,49.39
2022-08-15T07:37:53.235Z,49.48
2022-08-15T07:40:29.311Z,49.32
2022-08-15T07:43:10.821Z,49.49
2022-08-15T07:45:40.939Z,49.40
2022-08-15T07:48:22.218Z,49.66
2022-08-15T07:51:04.692Z,49.33
2022-08-15T07:53:34.370Z,49.42
2022-08-15T07:56:46.065Z,49.45
2022-08-15T07:59:10.361Z,49.51
2022-08-15T08:01:40.008Z,49.67
2022-08-15T08:04:22.765Z,49.53
2022-08-15T08:06:54.722Z,49.49
2022-08-15T08:09:26.809Z,49.39
2022-08-15T08:11:56.262Z,49.55
2022-08-15T08:14:39.092Z,49.55
2022-08-15T08:17:14.304Z,49.73
2022-08-15T08:19:57.355Z,49.43
2022-08-15T08:22:29.279Z,49.32
2022-08-15T08:25:08.216Z,49.55
2022-08-15T08:27:47.401Z,49.45
2022-08-15T08:30:44.222Z,49.27
2022-08-15T08:33:15.448Z,49.51
2022-08-15T08:35:45.808Z,49.33
2022-08-15T08:39:03.422Z,49.39
2022-08-15T08:41:45.828Z,49.38
2022-08-15T08:44:23.065Z,49.15
2022-08-15T08:47:06.709Z,49.17
2022-08-15T08:50:24.344Z,48.92
2022-08-15T08:52:29.915Z,48.98
2022-08-15T08:55:02.015Z,48.96
2022-08-15T08:57:35.304Z,48.94
2022-08-15T09:00:07.808Z,49.29
2022-08-15T09:02:43.921Z,48.70
2022-08-15T09:05:34.783Z,48.71
2022-08-15T09:08:21.612Z,48.80
2022-08-15T09:11:01.831Z,49.01
2022-08-15T09:13:38.967Z,48.90
2022-08-15T09:16:16.737Z,48.99
2022-08-15T09:18:51.049Z,48.62
2022-08-15T09:21:19.586Z,48.86
2022-08-15T09:23:47.976Z,49.22
2022-08-15T09:26:21.096Z,49.32
2022-08-15T09:29:18.246Z,48.91
2022-08-15T09:32:00.275Z,49.12
2022-08-15T09:34:40.893Z,49.05
2022-08-15T09:37:38.174Z,49.29
2022-08-15T09:40:57.841Z,49.63
2022-08-15T09:43:33.245Z,49.62
2022-08-15T09:46:36.506Z,49.70
2022-08-15T09:49:19.087Z,49.75
2022-08-15T09:52:04.162Z,49.86
2022-08-15T09:54:45.667Z,50.12
2022-08-15T09:57:26.457Z,49.90
2022-08-15T09:59:59.292Z,49.88
2022-08-15T10:02:37.495Z,50.25
2022-08-15T10:05:25.221Z,49.91
2022-08-15T10:07:55.497Z,50.25
2022-08-15T10:10:42.588Z,50.19
2022-08-15T10:13:20.350Z,49.89
2022-08-15T10:15:51.148Z,49.85
2022-08-15T10:18:56.889Z,49.36
2022-08-15T10:21:25.107Z,49.48
2022-08-15T10:23:59.492Z,48.71
2022-08-15T10:26:33.754Z,48.88
2022-08-15T10:29:12.111Z,48.51
2022-08-15T10:31:51.796Z,48.11
2022-08-15T10:34:36.673Z,47.42
2022-08-15T10:37:11.289Z,47.15
2022-08-15T10:39:46.729Z,46.48
2022-08-15T10:42:23.166Z,46.10
2022-08-15T10:44:56.991Z,45.72
2022-08-15T10:47:33.471Z,45.51
2022-08-15T10:50:10.298Z,45.26
2022-08-15T10:52:43.879Z,45.29
2022-08-15T10:55:55.807Z,45.11
2022-08-15T10:58:15.591Z,44.65
2022-08-15T11:00:50.894Z,44.75
2022-08-15T11:03:22.181Z,44.75
2022-08-15T11:06:00.164Z,44.30
2022-08-15T11:08:31.304Z,44.17
2022-08-15T11:11:06.464Z,44.67
2022-08-15T11:13:34.893Z,44.77
2022-08-15T11:16:32.356Z,44.16
2022-08-15T11:19:00.366Z,44.16
2022-08-15T11:21:32.293Z,44.63
2022-08-15T11:24:09.737Z,44.45
2022-08-15T11:26:41.777Z,44.20
2022-08-15T11:29:15.826Z,43.97
2022-08-15T11:31:45.667Z,44.32
2022-08-15T11:34:42.724Z,44.08
2022-08-15T11:37:16.517Z,43.98
2022-08-15T11:39:46.766Z,43.51
2022-08-15T11:42:18.886Z,43.51
2022-08-15T11:44:49.841Z,43.49
2022-08-15T11:47:18.501Z,43.21
2022-08-15T11:49:51.562Z,42.81
2022-08-15T11:52:41.644Z,42.95
2022-08-15T11:55:23.887Z,42.56
2022-08-15T11:57:56.007Z,42.36
2022-08-15T12:00:28.064Z,42.63
2022-08-15T12:03:04.218Z,43.08
2022-08-15T12:05:42.115Z,42.42
2022-08-15T12:08:27.721Z,41.48
2022-08-15T12:11:03.227Z,41.25
2022-08-15T12:13:37.872Z,40.65
2022-08-15T12:16:26.684Z,40.37
2022-08-15T12:18:59.001Z,41.01
2022-08-15T12:21:27.251Z,40.29
2022-08-15T12:23:56.261Z,38.59
2022-08-15T12:26:47.860Z,36.86
2022-08-15T12:29:18.753Z,36.03
2022-08-15T12:31:47.184Z,35.85
2022-08-15T12:34:27.308Z,35.81
2022-08-15T12:37:04.068Z,35.53
2022-08-15T12:39:35.621Z,35.49
2022-08-15T12:42:50.077Z,35.62
2022-08-15T12:44:55.004Z,35.97
2022-08-15T12:47:31.976Z,37.43
2022-08-15T12:50:00.877Z,37.13
2022-08-15T12:52:28.972Z,36.81
2022-08-15T12:54:59.010Z,36.22
2022-08-15T12:57:51.020Z,35.45
2022-08-15T13:00:35.637Z,33.92
2022-08-15T13:03:19.179Z,32.64
2022-08-15T13:06:30.834Z,31.44
2022-08-15T13:08:41.477Z,30.75
2022-08-15T13:11:16.308Z,30.13
2022-08-15T13:13:49.060Z,29.77
2022-08-15T13:17:08.419Z,28.40
2022-08-15T13:19:08.637Z,27.89
2022-08-15T13:21:58.701Z,28.02
2022-08-15T13:24:27.668Z,27.20
2022-08-15T13:26:57.306Z,27.87
2022-08-15T13:29:25.290Z,27.45
2022-08-15T13:31:55.246Z,26.85
2022-08-15T13:34:24.161Z,27.01
2022-08-15T13:36:54.715Z,26.52
2022-08-15T13:39:28.808Z,26.29
2022-08-15T13:42:05.662Z,26.41
2022-08-15T13:44:46.958Z,26.29
2022-08-15T13:47:16.930Z,25.66
2022-08-15T13:49:45.054Z,25.81
2022-08-15T13:52:45.246Z,26.22
2022-08-15T13:55:14.326Z,27.04
2022-08-15T13:58:05.857Z,26.26
2022-08-15T14:00:56.810Z,26.28
2022-08-15T14:03:23.763Z,26.70
2022-08-15T14:05:52.458Z,27.21
2022-08-15T14:08:28.481Z,28.44
2022-08-15T14:11:13.901Z,29.24
2022-08-15T14:13:42.476Z,30.04
2022-08-15T14:16:57.439Z,31.04
2022-08-15T14:19:02.024Z,31.73
2022-08-15T14:21:31.952Z,32.17
2022-08-15T14:24:01.607Z,32.46
2022-08-15T14:27:11.016Z,33.05
2022-08-15T14:29:34.163Z,32.80
2022-08-15T14:35:02.708Z,34.04
2022-08-15T14:37:47.387Z,35.03
2022-08-15T14:40:20.158Z,35.35
2022-08-15T14:42:49.248Z,36.05
2022-08-15T14:45:20.875Z,37.27
2022-08-15T14:48:23.102Z,38.63
2022-08-15T14:51:56.855Z,40.92
2022-08-15T14:53:47.936Z,42.01
2022-08-15T14:56:16.521Z,43.08
2022-08-15T14:58:46.277Z,43.53
2022-08-15T15:01:22.504Z,43.48
2022-08-15T15:04:06.402Z,43.42
2022-08-15T15:06:39.718Z,43.78
2022-08-15T15:09:15.136Z,43.96
2022-08-15T15:11:46.117Z,44.15
2022-08-15T15:14:24.932Z,44.08
2022-08-15T15:16:56.577Z,44.23
2022-08-15T15:19:38.900Z,44.32
2022-08-15T15:22:10.347Z,44.10
2022-08-15T15:24:44.849Z,44.81
2022-08-15T15:27:17.425Z,45.32
2022-08-15T15:29:50.539Z,45.66
2022-08-15T15:32:30.575Z,46.16
2022-08-15T15:35:02.068Z,46.01
2022-08-15T15:37:31.714Z,46.30
2022-08-15T15:40:00.791Z,46.39
2022-08-15T15:42:32.081Z,46.97
2022-08-15T15:45:02.461Z,46.67
2022-08-15T15:47:58.660Z,45.36
2022-08-15T15:50:26.528Z,44.87
2022-08-15T15:53:02.226Z,44.48
2022-08-15T15:55:31.108Z,44.27
2022-08-15T15:58:59.613Z,43.88
2022-08-15T16:00:47.990Z,42.77
2022-08-15T16:03:17.085Z,41.78
2022-08-15T16:06:03.889Z,40.80
2022-08-15T16:08:44.669Z,38.95
2022-08-15T16:11:25.231Z,37.42
2022-08-15T16:13:58.205Z,36.27
2022-08-15T16:16:30.229Z,36.38
2022-08-15T16:19:03.168Z,36.93
2022-08-15T16:21:58.494Z,36.38
2022-08-15T16:24:28.400Z,35.79
2022-08-15T16:27:00.202Z,35.50
2022-08-15T16:29:37.976Z,35.07
2022-08-15T16:32:09.738Z,35.04
2022-08-15T16:34:40.638Z,35.13
2022-08-15T16:37:13.879Z,35.13
2022-08-15T16:39:47.529Z,35.09
2022-08-15T16:42:41.573Z,34.70
2022-08-15T16:45:19.617Z,34.04
2022-08-15T16:47:55.828Z,32.72
2022-08-15T16:50:29.856Z,32.58
2022-08-15T16:53:00.861Z,32.68
2022-08-15T16:55:36.949Z,31.97
2022-08-15T16:58:36.647Z,31.20
2022-08-15T17:01:10.490Z,31.31
2022-08-15T17:03:56.984Z,30.56
2022-08-15T17:06:27.485Z,30.53
2022-08-15T17:09:06.095Z,30.32
2022-08-15T17:11:41.016Z,30.50
2022-08-15T17:14:48.592Z,30.58
2022-08-15T17:17:06.531Z,30.11
2022-08-15T17:19:39.295Z,30.44
2022-08-15T17:22:09.592Z,30.12
2022-08-15T17:25:10.408Z,30.34
2022-08-15T17:27:56.576Z,30.35
2022-08-15T17:30:53.931Z,31.09
2022-08-15T17:33:42.198Z,31.78
2022-08-15T17:36:12.295Z,32.88
2022-08-15T17:38:44.180Z,34.25
2022-08-15T17:41:22.286Z,35.28
2022-08-15T17:43:52.854Z,36.33
2022-08-15T17:46:26.141Z,37.25
2022-08-15T17:48:59.233Z,37.69
2022-08-15T17:51:32.867Z,38.04
2022-08-15T17:54:04.010Z,38.22
2022-08-15T17:56:38.148Z,39.17
2022-08-15T17:59:10.158Z,39.34
2022-08-15T18:01:38.586Z,39.72
2022-08-15T18:04:07.105Z,39.93
2022-08-15T18:06:36.338Z,40.17
2022-08-15T18:09:06.495Z,40.13
2022-08-15T18:11:39.522Z,40.41
2022-08-15T18:14:39.072Z,40.65
2022-08-15T18:17:00.572Z,41.02
2022-08-15T18:19:29.110Z,41.16
2022-08-15T18:22:01.260Z,41.17
2022-08-15T18:24:57.205Z,41.32
2022-08-15T18:27:54.771Z,41.40
2022-08-15T18:30:41.046Z,41.92
2022-08-15T18:33:19.260Z,41.74
2022-08-15T18:35:47.289Z,42.18
2022-08-15T18:38:20.759Z,42.38
2022-08-15T18:41:08.639Z,42.31
2022-08-15T18:43:40.565Z,42.70
2022-08-15T18:46:11.625Z,43.35
2022-08-15T18:48:39.734Z,43.34
2022-08-15T18:51:16.403Z,43.64
2022-08-15T18:53:55.961Z,43.60
2022-08-15T18:56:27.046Z,43.88
2022-08-15T18:58:55.938Z,44.41
2022-08-15T19:01:37.022Z,44.67
2022-08-15T19:04:50.504Z,44.78
2022-08-15T19:07:13.065Z,44.50
2022-08-15T19:09:48.832Z,44.49
2022-08-15T19:12:29.688Z,45.03
2022-08-15T19:18:06.024Z,44.76
2022-08-15T19:20:34.153Z,45.01
2022-08-15T19:23:04.114Z,45.35
2022-08-15T19:24:28.480Z,44.86
2022-08-15T19:25:40.678Z,45.65
2022-08-15T19:28:40.258Z,45.84
2022-08-15T19:31:07.540Z,45.81
2022-08-15T19:33:41.004Z,45.82
2022-08-15T19:36:31.281Z,45.78
2022-08-15T19:39:06.023Z,46.14
2022-08-15T19:41:40.408Z,46.32
2022-08-15T19:44:27.122Z,46.23
2022-08-15T19:46:57.491Z,46.19
2022-08-15T19:50:05.462Z,46.47
2022-08-15T19:52:44.088Z,46.46
2022-08-15T19:55:40.438Z,46.53
2022-08-15T19:58:29.698Z,46.29
2022-08-15T20:00:57.589Z,46.52
2022-08-15T20:03:29.841Z,46.72
2022-08-15T20:06:08.392Z,47.03
2022-08-15T20:08:40.345Z,46.86
2022-08-15T20:11:17.077Z,47.18
2022-08-15T20:14:01.787Z,46.93
2022-08-15T20:16:56.088Z,47.14
2022-08-15T20:19:35.949Z,47.39
2022-08-15T20:22:34.340Z,47.54
2022-08-15T20:25:03.468Z,47.28
2022-08-15T20:27:31.784Z,47.30
2022-08-15T20:30:03.564Z,47.71
2022-08-15T20:32:36.782Z,47.92
2022-08-15T20:35:17.141Z,47.97
2022-08-15T20:37:53.566Z,48.17
2022-08-15T20:40:24.175Z,48.25
2022-08-15T20:42:55.535Z,48.10
2022-08-15T20:45:29.619Z,48.25
2022-08-15T20:48:42.470Z,48.07
2022-08-15T20:50:50.858Z,47.93
2022-08-15T20:53:20.396Z,48.40
2022-08-15T20:55:52.905Z,48.40
2022-08-15T20:59:01.879Z,48.33
2022-08-15T21:01:34.753Z,48.39
2022-08-15T21:04:22.171Z,48.40
2022-08-15T21:06:57.204Z,48.53
2022-08-15T21:09:40.482Z,48.44
2022-08-15T21:12:25.272Z,48.29
2022-08-15T21:15:09.281Z,48.33
2022-08-15T21:17:55.555Z,48.37
2022-08-15T21:20:32.860Z,48.34
2022-08-15T21:23:04.517Z,48.46
2022-08-15T21:25:43.386Z,48.42
2022-08-15T21:28:38.168Z,48.47
2022-08-15T21:31:34.734Z,48.81
2022-08-15T21:34:34.514Z,48.79
2022-08-15T21:37:40.092Z,48.78
2022-08-15T21:40:56.960Z,48.84
2022-08-15T21:44:06.923Z,48.83
2022-08-15T21:47:02.440Z,48.86
2022-08-15T21:50:25.808Z,48.93
2022-08-15T21:53:00.703Z,49.23
2022-08-15T21:55:47.383Z,48.90
2022-08-15T21:58:59.943Z,48.95
2022-08-15T22:01:47.015Z,49.18
2022-08-15T22:04:27.380Z,49.40
2022-08-15T22:06:55.644Z,49.25
2022-08-15T22:09:36.998Z,49.25
2022-08-15T22:12:13.470Z,49.17
2022-08-15T22:14:44.366Z,49.18
2022-08-15T22:17:15.023Z,49.10
2022-08-15T22:19:43.036Z,49.02
2022-08-15T22:22:18.761Z,48.87
2022-08-15T22:24:47.200Z,48.97
2022-08-15T22:27:18.198Z,48.78
2022-08-15T22:29:48.751Z,48.96
2022-08-15T22:32:32.286Z,48.75
2022-08-15T22:35:06.995Z,48.85
2022-08-15T22:37:43.497Z,48.81
2022-08-15T22:40:18.762Z,48.69
2022-08-15T22:42:50.959Z,48.76
2022-08-15T22:45:34.716Z,48.78
2022-08-15T22:48:19.001Z,48.71
2022-08-15T22:50:51.829Z,48.79
2022-08-15T22:53:20.529Z,48.79
2022-08-15T22:55:48.522Z,48.77
2022-08-15T22:58:16.497Z,48.77
2022-08-15T23:00:46.674Z,48.78
2022-08-15T23:03:22.613Z,48.90
2022-08-15T23:05:53.470Z,49.15
2022-08-15T23:08:23.298Z,48.79
2022-08-15T23:10:53.288Z,48.85
2022-08-15T23:13:27.248Z,48.87
2022-08-15T23:16:04.542Z,48.87
2022-08-15T23:18:57.975Z,48.93
2022-08-15T23:21:26.079Z,48.63
2022-08-15T23:23:55.607Z,49.01
2022-08-15T23:26:31.138Z,49.00
2022-08-15T23:29:01.349Z,49.20
2022-08-15T23:31:37.633Z,49.11
2022-08-15T23:34:21.364Z,49.33
2022-08-15T23:36:59.677Z,49.26
2022-08-15T23:39:34.530Z,49.49
2022-08-15T23:42:11.958Z,49.57
2022-08-15T23:44:41.738Z,49.56
2022-08-15T23:47:13.256Z,49.67
2022-08-15T23:49:44.928Z,49.66
2022-08-15T23:52:20.836Z,49.73
2022-08-15T23:54:52.762Z,49.75
2022-08-15T23:57:21.694Z,49.91
2022-08-15T23:59:55.869Z,49.90
